createdAt,value
2022-10-18T00:01:05.521Z,101528.34
2022-10-18T00:03:34.289Z,101521.66
2022-10-18T00:06:05.014Z,101525.00
2022-10-18T00:08:32.790Z,101524.16
2022-10-18T00:11:02.587Z,101525.19
2022-10-18T00:13:30.072Z,101518.31
2022-10-18T00:16:00.437Z,101517.28
2022-10-18T00:18:28.857Z,101517.91
2022-10-18T00:21:06.326Z,101514.16
2022-10-18T00:23:35.563Z,101504.56
2022-10-18T00:26:23.919Z,101509.75
2022-10-18T00:28:56.516Z,101506.41
2022-10-18T00:31:33.783Z,101513.06
2022-10-18T00:34:04.045Z,101509.13
2022-10-18T00:36:35.441Z,101506.81
2022-10-18T00:39:05.347Z,101504.13
2022-10-18T00:41:35.000Z,101499.31
2022-10-18T00:44:28.311Z,101503.69
2022-10-18T00:47:09.554Z,101504.94
2022-10-18T00:49:40.674Z,101499.94
2022-10-18T00:52:10.588Z,101500.16
2022-10-18T00:54:42.439Z,101502.84
2022-10-18T00:57:10.089Z,101498.69
2022-10-18T00:59:38.523Z,101496.81
2022-10-18T01:02:07.573Z,101496.19
2022-10-18T01:04:35.490Z,101487.03
2022-10-18T01:07:21.169Z,101490.34
2022-10-18T01:09:56.140Z,101489.94
2022-10-18T01:12:55.968Z,101487.44
2022-10-18T01:15:49.723Z,101483.06
2022-10-18T01:18:37.476Z,101477.84
2022-10-18T01:21:40.691Z,101480.75
2022-10-18T01:24:45.917Z,101477.44
2022-10-18T01:27:19.150Z,101471.56
2022-10-18T01:30:18.870Z,101470.72
2022-10-18T01:32:54.737Z,101461.97
2022-10-18T01:35:35.490Z,101458.44
2022-10-18T01:38:07.738Z,101463.00
2022-10-18T01:40:37.549Z,101462.81
2022-10-18T01:45:39.235Z,101461.78
2022-10-18T01:48:07.482Z,101457.19
2022-10-18T01:50:37.929Z,101449.06
2022-10-18T01:53:05.402Z,101447.84
2022-10-18T01:55:43.265Z,101446.41
2022-10-18T01:58:16.062Z,101445.16
2022-10-18T02:00:50.049Z,101439.09
2022-10-18T02:03:25.677Z,101443.87
2022-10-18T02:06:01.567Z,101442.66
2022-10-18T02:08:34.613Z,101438.06
2022-10-18T02:11:06.478Z,101436.59
2022-10-18T02:13:40.046Z,101433.28
2022-10-18T02:16:11.905Z,101434.69
2022-10-18T02:18:45.513Z,101434.06
2022-10-18T02:21:17.835Z,101439.91
2022-10-18T02:23:47.984Z,101427.81
2022-10-18T02:26:18.922Z,101432.59
2022-10-18T02:28:47.029Z,101435.72
2022-10-18T02:31:22.638Z,101433.22
2022-10-18T02:34:21.199Z,101433.84
2022-10-18T02:36:56.829Z,101441.97
2022-10-18T02:39:30.370Z,101430.69
2022-10-18T02:41:58.766Z,101436.50
2022-10-18T02:44:27.070Z,101438.16
2022-10-18T02:46:57.213Z,101436.50
2022-10-18T02:49:24.781Z,101431.28
2022-10-18T02:51:52.280Z,101437.72
2022-10-18T02:54:19.773Z,101437.94
2022-10-18T02:56:47.385Z,101441.88
2022-10-18T02:59:15.015Z,101435.84
2022-10-18T03:01:42.616Z,101427.31
2022-10-18T03:04:12.780Z,101429.41
2022-10-18T03:06:40.330Z,101436.47
2022-10-18T03:09:12.731Z,101431.88
2022-10-18T03:11:40.243Z,101438.31
2022-10-18T03:14:10.288Z,101438.97
2022-10-18T03:16:37.793Z,101451.03
2022-10-18T03:19:05.365Z,101443.97
2022-10-18T03:21:32.842Z,101448.34
2022-10-18T03:24:00.468Z,101448.34
2022-10-18T03:26:27.957Z,101448.97
2022-10-18T03:28:55.865Z,101452.91
2022-10-18T03:31:23.463Z,101445.84
2022-10-18T03:33:51.159Z,101447.72
2022-10-18T03:36:18.707Z,101448.31
2022-10-18T03:38:46.213Z,101448.53
2022-10-18T03:41:13.815Z,101450.00
2022-10-18T03:43:41.358Z,101454.78
2022-10-18T03:46:08.890Z,101450.81
2022-10-18T03:48:36.434Z,101438.69
2022-10-18T03:51:03.973Z,101453.91
2022-10-18T03:53:31.513Z,101450.00
2022-10-18T03:56:01.533Z,101453.53
2022-10-18T03:58:29.074Z,101457.28
2022-10-18T04:00:56.625Z,101456.87
2022-10-18T04:03:24.521Z,101456.66
2022-10-18T04:05:52.425Z,101461.44
2022-10-18T04:08:20.467Z,101449.38
2022-10-18T04:10:50.234Z,101455.41
2022-10-18T04:13:19.069Z,101449.38
2022-10-18T04:15:48.948Z,101445.00
2022-10-18T04:18:17.684Z,101450.41
2022-10-18T04:20:45.509Z,101446.44
2022-10-18T04:23:13.126Z,101443.44
2022-10-18T04:25:45.507Z,101453.44
2022-10-18T04:28:13.028Z,101446.97
2022-10-18T04:30:40.559Z,101442.59
2022-10-18T04:33:08.075Z,101443.00
2022-10-18T04:35:35.551Z,101442.16
2022-10-18T04:38:03.060Z,101446.94
2022-10-18T04:40:30.536Z,101446.66
2022-10-18T04:42:58.048Z,101449.75
2022-10-18T04:45:25.563Z,101443.91
2022-10-18T04:47:53.172Z,101436.59
2022-10-18T04:50:20.819Z,101411.09
2022-10-18T04:55:21.557Z,101429.44
2022-10-18T04:57:49.100Z,101426.50
2022-10-18T05:00:16.827Z,101428.34
2022-10-18T05:02:46.827Z,101429.75
2022-10-18T05:05:16.772Z,101429.09
2022-10-18T05:07:44.258Z,101419.78
2022-10-18T05:10:11.806Z,101419.31
2022-10-18T05:12:39.359Z,101421.19
2022-10-18T05:15:08.502Z,101426.03
2022-10-18T05:17:36.056Z,101425.62
2022-10-18T05:20:09.523Z,101426.47
2022-10-18T05:22:37.075Z,101420.22
2022-10-18T05:25:04.909Z,101430.37
2022-10-18T05:27:32.442Z,101427.50
2022-10-18T05:30:01.387Z,101423.13
2022-10-18T05:32:37.046Z,101428.12
2022-10-18T05:35:04.857Z,101423.94
2022-10-18T05:37:32.448Z,101427.28
2022-10-18T05:39:59.925Z,101431.91
2022-10-18T05:42:27.420Z,101427.75
2022-10-18T05:44:56.439Z,101428.41
2022-10-18T05:47:23.988Z,101430.28
2022-10-18T05:49:51.535Z,101425.78
2022-10-18T05:52:19.170Z,101428.72
2022-10-18T05:54:46.688Z,101426.87
2022-10-18T05:57:16.572Z,101424.41
2022-10-18T05:59:47.182Z,101431.13
2022-10-18T06:02:16.843Z,101429.69
2022-10-18T06:04:44.354Z,101433.87
2022-10-18T06:07:17.397Z,101423.97
2022-10-18T06:09:46.216Z,101426.91
2022-10-18T06:12:13.754Z,101434.47
2022-10-18T06:14:41.257Z,101436.56
2022-10-18T06:17:09.031Z,101436.59
2022-10-18T06:19:38.970Z,101440.78
2022-10-18T06:22:06.447Z,101433.72
2022-10-18T06:24:36.118Z,101435.56
2022-10-18T06:27:08.140Z,101443.50
2022-10-18T06:29:40.873Z,101451.41
2022-10-18T06:32:09.046Z,101450.34
2022-10-18T06:34:36.591Z,101449.00
2022-10-18T06:37:06.440Z,101444.59
2022-10-18T06:39:33.918Z,101450.13
2022-10-18T06:42:01.478Z,101447.53
2022-10-18T06:44:28.986Z,101444.88
2022-10-18T06:46:56.517Z,101449.31
2022-10-18T06:49:26.154Z,101444.56
2022-10-18T06:51:54.928Z,101446.91
2022-10-18T06:54:22.430Z,101449.66
2022-10-18T06:56:49.921Z,101451.59
2022-10-18T06:59:18.704Z,101456.22
2022-10-18T07:01:46.234Z,101454.37
2022-10-18T07:04:13.800Z,101461.22
2022-10-18T07:06:41.459Z,101468.59
2022-10-18T07:09:08.970Z,101462.81
2022-10-18T07:11:38.860Z,101461.06
2022-10-18T07:14:08.824Z,101460.75
2022-10-18T07:16:37.906Z,101460.31
2022-10-18T07:19:05.534Z,101462.00
2022-10-18T07:21:35.571Z,101452.50
2022-10-18T07:24:03.077Z,101451.47
2022-10-18T07:26:33.104Z,101448.16
2022-10-18T07:29:13.136Z,101444.84
2022-10-18T07:31:41.002Z,101439.66
2022-10-18T07:34:11.236Z,101443.34
2022-10-18T07:36:38.835Z,101445.06
2022-10-18T07:39:08.106Z,101436.97
2022-10-18T07:41:36.711Z,101442.81
2022-10-18T07:44:05.506Z,101442.22
2022-10-18T07:46:34.080Z,101435.41
2022-10-18T07:49:01.579Z,101439.94
2022-10-18T07:51:30.929Z,101448.56
2022-10-18T07:53:58.436Z,101441.25
2022-10-18T07:56:28.792Z,101442.44
2022-10-18T07:58:57.789Z,101438.34
2022-10-18T08:01:25.898Z,101431.34
2022-10-18T08:03:56.145Z,101428.12
2022-10-18T08:06:26.105Z,101426.97
2022-10-18T08:08:53.665Z,101420.25
2022-10-18T08:11:25.863Z,101434.75
2022-10-18T08:13:54.604Z,101426.81
2022-10-18T08:16:25.521Z,101418.09
2022-10-18T08:18:53.579Z,101419.66
2022-10-18T08:21:22.732Z,101420.16
2022-10-18T08:23:50.830Z,101412.66
2022-10-18T08:26:20.908Z,101416.97
2022-10-18T08:29:10.378Z,101406.00
2022-10-18T08:31:39.325Z,101404.09
2022-10-18T08:34:07.038Z,101397.94
2022-10-18T08:36:34.689Z,101404.22
2022-10-18T08:39:02.949Z,101402.38
2022-10-18T08:41:55.471Z,101390.94
2022-10-18T08:44:29.275Z,101385.38
2022-10-18T08:47:02.946Z,101391.19
2022-10-18T08:49:45.624Z,101385.50
2022-10-18T08:52:53.145Z,101384.72
2022-10-18T08:55:54.101Z,101383.00
2022-10-18T08:58:26.918Z,101370.00
2022-10-18T09:01:31.687Z,101369.44
2022-10-18T09:04:05.243Z,101372.31
2022-10-18T09:06:56.629Z,101360.59
2022-10-18T09:09:27.257Z,101358.63
2022-10-18T09:12:02.114Z,101357.94
2022-10-18T09:14:38.987Z,101369.44
2022-10-18T09:17:18.465Z,101352.88
2022-10-18T09:22:55.475Z,101347.19
2022-10-18T09:25:26.751Z,101350.91
2022-10-18T09:28:31.000Z,101347.91
2022-10-18T09:31:08.861Z,101348.06
2022-10-18T09:33:39.331Z,101340.12
2022-10-18T09:36:12.126Z,101346.75
2022-10-18T09:38:57.207Z,101338.03
2022-10-18T09:41:35.070Z,101334.69
2022-10-18T09:44:07.483Z,101332.91
2022-10-18T09:46:40.135Z,101330.72
2022-10-18T09:49:15.610Z,101325.97
2022-10-18T09:51:45.667Z,101326.53
2022-10-18T09:54:34.969Z,101321.69
2022-10-18T09:57:08.652Z,101319.31
2022-10-18T09:59:44.245Z,101322.91
2022-10-18T10:02:21.480Z,101317.19
2022-10-18T10:04:54.159Z,101312.13
2022-10-18T10:07:31.057Z,101306.88
2022-10-18T10:10:24.357Z,101305.84
2022-10-18T10:13:07.196Z,101296.59
2022-10-18T10:15:38.154Z,101297.34
2022-10-18T10:18:19.767Z,101289.16
2022-10-18T10:20:53.911Z,101286.97
2022-10-18T10:23:29.214Z,101288.78
2022-10-18T10:26:02.385Z,101287.87
2022-10-18T10:28:34.598Z,101284.91
2022-10-18T10:31:30.197Z,101275.62
2022-10-18T10:34:15.788Z,101261.81
2022-10-18T10:36:54.284Z,101264.31
2022-10-18T10:39:24.369Z,101257.34
2022-10-18T10:41:57.992Z,101264.31
2022-10-18T10:44:30.353Z,101253.44
2022-10-18T10:46:58.259Z,101244.88
2022-10-18T10:49:41.454Z,101249.03
2022-10-18T10:52:29.594Z,101245.75
2022-10-18T10:55:06.158Z,101232.03
2022-10-18T10:57:39.648Z,101235.34
2022-10-18T11:00:07.620Z,101241.19
2022-10-18T11:02:38.034Z,101229.66
2022-10-18T11:05:29.887Z,101225.06
2022-10-18T11:08:03.997Z,101225.41
2022-10-18T11:10:44.602Z,101211.47
2022-10-18T11:13:29.466Z,101213.00
2022-10-18T11:16:17.536Z,101207.31
2022-10-18T11:18:49.059Z,101208.19
2022-10-18T11:21:30.832Z,101206.09
2022-10-18T11:24:03.078Z,101205.44
2022-10-18T11:27:15.870Z,101199.50
2022-10-18T11:30:23.781Z,101198.16
2022-10-18T11:33:12.536Z,101192.38
2022-10-18T11:35:50.709Z,101176.69
2022-10-18T11:38:53.722Z,101174.91
2022-10-18T11:41:39.882Z,101171.44
2022-10-18T11:44:38.269Z,101166.94
2022-10-18T11:47:24.408Z,101168.00
2022-10-18T11:49:55.023Z,101156.91
2022-10-18T11:52:28.851Z,101154.91
2022-10-18T11:55:17.920Z,101144.09
2022-10-18T11:58:04.321Z,101141.00
2022-10-18T12:00:35.021Z,101136.75
2022-10-18T12:03:23.586Z,101140.25
2022-10-18T12:05:53.707Z,101137.50
2022-10-18T12:08:24.016Z,101125.75
2022-10-18T12:11:05.111Z,101124.47
2022-10-18T12:13:53.583Z,101117.69
2022-10-18T12:16:45.574Z,101108.72
2022-10-18T12:19:26.993Z,101116.56
2022-10-18T12:21:58.649Z,101109.47
2022-10-18T12:24:29.508Z,101103.84
2022-10-18T12:27:04.048Z,101097.78
2022-10-18T12:29:45.394Z,101092.19
2022-10-18T12:32:19.518Z,101088.97
2022-10-18T12:35:01.494Z,101093.00
2022-10-18T12:37:50.613Z,101087.66
2022-10-18T12:40:42.569Z,101074.94
2022-10-18T12:43:20.034Z,101076.47
2022-10-18T12:46:02.267Z,101073.44
2022-10-18T12:48:39.115Z,101064.25
2022-10-18T12:51:21.703Z,101060.66
2022-10-18T12:54:14.588Z,101057.37
2022-10-18T12:56:44.017Z,101051.47
2022-10-18T12:59:23.350Z,101054.09
2022-10-18T13:01:53.899Z,101044.97
2022-10-18T13:04:32.380Z,101043.09
2022-10-18T13:06:59.912Z,101046.28
2022-10-18T13:09:30.517Z,101039.63
2022-10-18T13:12:10.075Z,101029.03
2022-10-18T13:14:48.288Z,101030.63
2022-10-18T13:17:48.492Z,101032.63
2022-10-18T13:20:44.071Z,101025.66
2022-10-18T13:23:39.709Z,101018.38
2022-10-18T13:26:10.289Z,101021.50
2022-10-18T13:29:04.376Z,101016.63
2022-10-18T13:31:56.699Z,101030.22
2022-10-18T13:34:32.956Z,101015.81
2022-10-18T13:37:05.151Z,101015.75
2022-10-18T13:39:34.182Z,101016.37
2022-10-18T13:42:01.681Z,101020.56
2022-10-18T13:44:30.561Z,101022.69
2022-10-18T13:47:00.689Z,101018.62
2022-10-18T13:49:40.279Z,101012.81
2022-10-18T13:52:25.774Z,101010.63
2022-10-18T13:55:14.743Z,101006.56
2022-10-18T13:57:54.470Z,101004.41
2022-10-18T14:00:36.991Z,101005.03
2022-10-18T14:03:56.376Z,101000.72
2022-10-18T14:06:47.411Z,100998.53
2022-10-18T14:09:26.413Z,100992.31
2022-10-18T14:12:27.424Z,100981.03
2022-10-18T14:15:09.005Z,100986.25
2022-10-18T14:17:43.284Z,100976.94
2022-10-18T14:20:28.727Z,100970.06
2022-10-18T14:23:09.429Z,100976.72
2022-10-18T14:25:40.383Z,100976.28
2022-10-18T14:28:17.585Z,100975.47
2022-10-18T14:30:55.527Z,100973.00
2022-10-18T14:33:47.434Z,100973.88
2022-10-18T14:36:16.354Z,100969.34
2022-10-18T14:38:55.080Z,100972.69
2022-10-18T14:41:28.567Z,100963.13
2022-10-18T14:44:18.499Z,100965.34
2022-10-18T14:46:54.601Z,100955.22
2022-10-18T14:49:22.951Z,100951.84
2022-10-18T14:51:56.973Z,100944.75
2022-10-18T14:54:31.887Z,100942.31
2022-10-18T14:57:01.556Z,100940.94
2022-10-18T14:59:31.738Z,100938.31
2022-10-18T15:02:06.082Z,100939.22
2022-10-18T15:04:33.704Z,100932.34
2022-10-18T15:07:06.992Z,100927.41
2022-10-18T15:09:36.906Z,100923.00
2022-10-18T15:12:06.816Z,100929.25
2022-10-18T15:14:35.814Z,100929.44
2022-10-18T15:17:15.595Z,100927.69
2022-10-18T15:19:57.671Z,100922.16
2022-10-18T15:22:32.406Z,100922.03
2022-10-18T15:25:06.516Z,100915.37
2022-10-18T15:27:37.896Z,100919.94
2022-10-18T15:30:43.755Z,100912.66
2022-10-18T15:33:23.351Z,100911.69
2022-10-18T15:35:55.270Z,100909.56
2022-10-18T15:38:28.384Z,100916.34
2022-10-18T15:40:56.566Z,100906.12
2022-10-18T15:43:24.151Z,100906.19
2022-10-18T15:46:00.022Z,100906.03
2022-10-18T15:48:35.894Z,100905.31
2022-10-18T15:51:06.289Z,100915.06
2022-10-18T15:53:51.157Z,100910.78
2022-10-18T15:56:33.965Z,100912.56
2022-10-18T15:59:05.530Z,100907.97
2022-10-18T16:01:39.779Z,100910.56
2022-10-18T16:04:42.041Z,100907.59
2022-10-18T16:07:15.452Z,100898.72
2022-10-18T16:09:44.337Z,100900.25
2022-10-18T16:12:11.903Z,100886.47
2022-10-18T16:14:39.432Z,100895.66
2022-10-18T16:17:08.066Z,100890.03
2022-10-18T16:19:38.073Z,100901.00
2022-10-18T16:22:07.824Z,100908.75
2022-10-18T16:24:35.332Z,100909.06
2022-10-18T16:27:02.860Z,100906.75
2022-10-18T16:29:33.443Z,100909.25
2022-10-18T16:32:01.256Z,100904.22
2022-10-18T16:34:28.854Z,100908.41
2022-10-18T16:36:56.783Z,100902.50
2022-10-18T16:39:26.716Z,100908.44
2022-10-18T16:41:54.245Z,100914.84
2022-10-18T16:44:21.792Z,100907.91
2022-10-18T16:46:52.423Z,100918.53
2022-10-18T16:49:24.895Z,100915.00
2022-10-18T16:51:53.685Z,100911.78
2022-10-18T16:54:21.658Z,100912.19
2022-10-18T16:56:50.295Z,100916.91
2022-10-18T16:59:30.213Z,100917.88
2022-10-18T17:01:58.388Z,100911.84
2022-10-18T17:04:26.015Z,100898.72
2022-10-18T17:06:58.311Z,100903.91
2022-10-18T17:09:26.088Z,100910.66
2022-10-18T17:11:53.785Z,100914.22
2022-10-18T17:14:21.454Z,100905.63
2022-10-18T17:16:53.098Z,100905.00
2022-10-18T17:19:23.781Z,100912.47
2022-10-18T17:21:51.313Z,100907.50
2022-10-18T17:24:18.822Z,100910.22
2022-10-18T17:26:46.408Z,100915.31
2022-10-18T17:29:13.974Z,100914.59
2022-10-18T17:31:41.622Z,100912.34
2022-10-18T17:34:09.145Z,100908.56
2022-10-18T17:36:36.822Z,100913.62
2022-10-18T17:39:04.775Z,100907.59
2022-10-18T17:41:32.315Z,100903.81
2022-10-18T17:43:59.853Z,100898.84
2022-10-18T17:46:27.375Z,100891.16
2022-10-18T17:48:54.989Z,100888.22
2022-10-18T17:51:23.418Z,100884.56
2022-10-18T17:53:51.006Z,100895.91
2022-10-18T17:56:18.635Z,100896.97
2022-10-18T17:58:46.993Z,100880.53
2022-10-18T18:01:23.057Z,100893.16
2022-10-18T18:03:50.744Z,100891.63
2022-10-18T18:06:23.941Z,100893.41
2022-10-18T18:08:51.501Z,100890.22
2022-10-18T18:11:21.613Z,100889.41
2022-10-18T18:13:51.532Z,100888.19
2022-10-18T18:16:21.937Z,100893.84
2022-10-18T18:18:52.111Z,100884.53
2022-10-18T18:21:20.379Z,100878.97
2022-10-18T18:23:48.271Z,100882.38
2022-10-18T18:26:18.570Z,100888.53
2022-10-18T18:28:46.429Z,100884.63
2022-10-18T18:31:17.876Z,100875.25
2022-10-18T18:33:46.167Z,100874.66
2022-10-18T18:36:13.846Z,100882.00
2022-10-18T18:38:43.425Z,100879.38
2022-10-18T18:41:19.602Z,100876.44
2022-10-18T18:44:00.182Z,100878.44
2022-10-18T18:46:30.318Z,100875.72
2022-10-18T18:48:58.793Z,100873.69
2022-10-18T18:51:26.523Z,100871.22
2022-10-18T18:53:54.695Z,100863.59
2022-10-18T18:56:26.559Z,100864.44
2022-10-18T18:58:54.601Z,100860.75
2022-10-18T19:01:33.325Z,100860.75
2022-10-18T19:04:01.114Z,100862.88
2022-10-18T19:06:43.959Z,100861.47
2022-10-18T19:09:20.510Z,100860.87
2022-10-18T19:11:49.246Z,100857.19
2022-10-18T19:14:17.681Z,100852.66
2022-10-18T19:16:50.561Z,100852.53
2022-10-18T19:19:23.670Z,100846.03
2022-10-18T19:21:56.288Z,100847.69
2022-10-18T19:24:25.453Z,100848.16
2022-10-18T19:26:55.990Z,100852.03
2022-10-18T19:29:27.993Z,100843.87
2022-10-18T19:32:00.355Z,100848.84
2022-10-18T19:34:32.107Z,100844.72
2022-10-18T19:36:59.754Z,100833.47
2022-10-18T19:39:32.620Z,100843.72
2022-10-18T19:42:04.129Z,100840.00
2022-10-18T19:44:33.773Z,100849.81
2022-10-18T19:47:01.743Z,100852.75
2022-10-18T19:49:29.754Z,100845.06
2022-10-18T19:51:58.251Z,100844.00
2022-10-18T19:54:26.883Z,100840.09
2022-10-18T19:56:54.460Z,100838.00
2022-10-18T19:59:25.248Z,100840.56
2022-10-18T20:01:52.799Z,100843.50
2022-10-18T20:04:20.471Z,100842.06
2022-10-18T20:06:48.018Z,100841.47
2022-10-18T20:09:19.402Z,100838.41
2022-10-18T20:11:48.407Z,100840.28
2022-10-18T20:14:15.976Z,100836.97
2022-10-18T20:16:43.512Z,100828.59
2022-10-18T20:19:11.705Z,100832.81
2022-10-18T20:21:39.946Z,100829.94
2022-10-18T20:24:09.311Z,100827.09
2022-10-18T20:26:36.866Z,100826.87
2022-10-18T20:29:05.218Z,100818.00
2022-10-18T20:31:39.052Z,100819.72
2022-10-18T20:34:11.904Z,100819.31
2022-10-18T20:36:40.014Z,100826.63
2022-10-18T20:39:07.934Z,100813.06
2022-10-18T20:41:38.644Z,100811.00
2022-10-18T20:44:13.326Z,100812.03
2022-10-18T20:46:41.539Z,100813.06
2022-10-18T20:49:11.512Z,100818.50
2022-10-18T20:51:39.018Z,100812.34
2022-10-18T20:54:10.571Z,100810.22
2022-10-18T20:56:40.859Z,100811.72
2022-10-18T20:59:10.094Z,100810.31
2022-10-18T21:01:40.890Z,100806.75
2022-10-18T21:04:11.520Z,100800.75
2022-10-18T21:06:41.810Z,100803.75
2022-10-18T21:09:15.624Z,100807.28
2022-10-18T21:11:49.382Z,100799.81
2022-10-18T21:14:20.059Z,100801.78
2022-10-18T21:16:51.647Z,100803.44
2022-10-18T21:19:27.303Z,100797.41
2022-10-18T21:21:57.349Z,100802.59
2022-10-18T21:24:26.547Z,100797.84
2022-10-18T21:26:54.582Z,100808.69
2022-10-18T21:29:23.488Z,100810.34
2022-10-18T21:31:55.254Z,100808.09
2022-10-18T21:34:22.898Z,100801.47
2022-10-18T21:36:50.529Z,100802.16
2022-10-18T21:39:20.799Z,100789.84
2022-10-18T21:41:48.663Z,100787.78
2022-10-18T21:44:17.356Z,100784.00
2022-10-18T21:46:46.623Z,100780.06
2022-10-18T21:49:14.876Z,100774.66
2022-10-18T21:51:45.328Z,100773.19
2022-10-18T21:54:14.881Z,100764.44
2022-10-18T21:56:45.541Z,100765.06
2022-10-18T21:59:14.463Z,100752.34
2022-10-18T22:01:45.083Z,100749.41
2022-10-18T22:04:21.481Z,100750.16
2022-10-18T22:06:49.286Z,100760.31
2022-10-18T22:09:17.522Z,100757.97
2022-10-18T22:11:52.372Z,100752.50
2022-10-18T22:14:20.468Z,100749.47
2022-10-18T22:16:48.075Z,100749.37
2022-10-18T22:19:15.758Z,100747.59
2022-10-18T22:21:43.358Z,100743.81
2022-10-18T22:24:11.065Z,100747.50
2022-10-18T22:26:41.626Z,100745.44
2022-10-18T22:29:20.994Z,100740.53
2022-10-18T22:31:50.940Z,100740.78
2022-10-18T22:34:21.762Z,100746.72
2022-10-18T22:36:49.699Z,100732.72
2022-10-18T22:39:18.728Z,100731.09
2022-10-18T22:41:52.123Z,100730.41
2022-10-18T22:44:19.880Z,100721.56
2022-10-18T22:46:47.379Z,100726.28
2022-10-18T22:49:14.986Z,100730.66
2022-10-18T22:51:43.052Z,100729.47
2022-10-18T22:54:10.546Z,100742.56
2022-10-18T22:56:38.133Z,100736.31
2022-10-18T22:59:05.696Z,100722.25
2022-10-18T23:01:33.205Z,100729.94
2022-10-18T23:04:05.650Z,100731.00
2022-10-18T23:06:35.831Z,100734.91
2022-10-18T23:09:07.032Z,100732.19
2022-10-18T23:11:35.762Z,100726.66
2022-10-18T23:14:04.550Z,100724.31
2022-10-18T23:16:32.474Z,100719.59
2022-10-18T23:19:02.591Z,100720.19
2022-10-18T23:21:30.401Z,100712.03
2022-10-18T23:23:58.304Z,100709.91
2022-10-18T23:26:28.402Z,100715.22
2022-10-18T23:28:56.479Z,100717.03
2022-10-18T23:31:29.387Z,100716.78
2022-10-18T23:33:59.444Z,100701.56
2022-10-18T23:36:27.438Z,100703.22
2022-10-18T23:38:55.413Z,100700.12
2022-10-18T23:41:23.462Z,100716.28
2022-10-18T23:43:51.711Z,100706.12
2022-10-18T23:46:19.928Z,100712.50
2022-10-18T23:48:48.277Z,100704.84
2022-10-18T23:51:16.871Z,100700.72
2022-10-18T23:53:44.521Z,100700.94
2022-10-18T23:56:17.487Z,100695.59
2022-10-18T23:58:48.112Z,100697.25
